sensor_id;sensor_type;location;lat;lon;timestamp;P1;durP1;ratioP1;P2;durP2;ratioP2
35675;SDS011;21790;42.668;23.298;2023-11-19T00:01:11;4.22;;;3.17;;
35675;SDS011;21790;42.668;23.298;2023-11-19T00:03:36;4.05;;;3.60;;
35675;SDS011;21790;42.668;23.298;2023-11-19T00:06:04;4.97;;;3.20;;
35675;SDS011;21790;42.668;23.298;2023-11-19T00:08:32;4.63;;;3.10;;
35675;SDS011;21790;42.668;23.298;2023-11-19T00:10:57;4.32;;;3.00;;
35675;SDS011;21790;42.668;23.298;2023-11-19T00:13:23;4.10;;;3.08;;
35675;SDS011;21790;42.668;23.298;2023-11-19T00:15:51;4.65;;;3.25;;
35675;SDS011;21790;42.668;23.298;2023-11-19T00:18:16;3.53;;;2.78;;
35675;SDS011;21790;42.668;23.298;2023-11-19T00:20:42;6.65;;;3.45;;
35675;SDS011;21790;42.668;23.298;2023-11-19T00:23:09;4.32;;;3.10;;
35675;SDS011;21790;42.668;23.298;2023-11-19T00:25:35;3.78;;;3.05;;
35675;SDS011;21790;42.668;23.298;2023-11-19T00:28:01;4.88;;;3.53;;
35675;SDS011;21790;42.668;23.298;2023-11-19T00:30:27;4.47;;;3.30;;
35675;SDS011;21790;42.668;23.298;2023-11-19T00:32:52;5.93;;;3.20;;
35675;SDS011;21790;42.668;23.298;2023-11-19T00:35:18;3.90;;;3.30;;
35675;SDS011;21790;42.668;23.298;2023-11-19T00:37:44;4.85;;;3.40;;
35675;SDS011;21790;42.668;23.298;2023-11-19T00:40:10;4.15;;;3.17;;
35675;SDS011;21790;42.668;23.298;2023-11-19T00:42:36;4.93;;;3.38;;
35675;SDS011;21790;42.668;23.298;2023-11-19T00:45:02;4.60;;;3.78;;
35675;SDS011;21790;42.668;23.298;2023-11-19T00:47:28;5.38;;;3.67;;
35675;SDS011;21790;42.668;23.298;2023-11-19T00:49:56;3.97;;;3.35;;
35675;SDS011;21790;42.668;23.298;2023-11-19T00:52:22;4.38;;;3.45;;
35675;SDS011;21790;42.668;23.298;2023-11-19T00:54:48;4.18;;;3.20;;
35675;SDS011;21790;42.668;23.298;2023-11-19T00:57:14;5.88;;;3.35;;
35675;SDS011;21790;42.668;23.298;2023-11-19T00:59:43;7.35;;;3.55;;
35675;SDS011;21790;42.668;23.298;2023-11-19T01:02:09;3.78;;;3.13;;
35675;SDS011;21790;42.668;23.298;2023-11-19T01:04:35;4.25;;;3.58;;
35675;SDS011;21790;42.668;23.298;2023-11-19T01:07:02;5.20;;;3.60;;
35675;SDS011;21790;42.668;23.298;2023-11-19T01:09:32;4.55;;;3.35;;
35675;SDS011;21790;42.668;23.298;2023-11-19T01:12:01;3.95;;;3.53;;
35675;SDS011;21790;42.668;23.298;2023-11-19T01:14:27;3.60;;;3.25;;
35675;SDS011;21790;42.668;23.298;2023-11-19T01:16:53;7.13;;;4.90;;
35675;SDS011;21790;42.668;23.298;2023-11-19T01:19:19;4.93;;;3.63;;
35675;SDS011;21790;42.668;23.298;2023-11-19T01:21:50;3.97;;;3.45;;
35675;SDS011;21790;42.668;23.298;2023-11-19T01:24:16;6.07;;;3.92;;
35675;SDS011;21790;42.668;23.298;2023-11-19T01:26:44;4.65;;;3.17;;
35675;SDS011;21790;42.668;23.298;2023-11-19T01:29:13;4.22;;;3.25;;
35675;SDS011;21790;42.668;23.298;2023-11-19T01:31:43;3.47;;;2.97;;
35675;SDS011;21790;42.668;23.298;2023-11-19T01:34:21;3.70;;;3.03;;
35675;SDS011;21790;42.668;23.298;2023-11-19T01:36:55;3.58;;;3.13;;
35675;SDS011;21790;42.668;23.298;2023-11-19T01:39:21;4.85;;;3.58;;
35675;SDS011;21790;42.668;23.298;2023-11-19T01:41:46;3.60;;;3.13;;
35675;SDS011;21790;42.668;23.298;2023-11-19T01:44:14;5.97;;;3.20;;
35675;SDS011;21790;42.668;23.298;2023-11-19T01:46:43;4.28;;;3.30;;
35675;SDS011;21790;42.668;23.298;2023-11-19T01:49:13;3.38;;;3.08;;
35675;SDS011;21790;42.668;23.298;2023-11-19T01:51:40;3.88;;;3.25;;
35675;SDS011;21790;42.668;23.298;2023-11-19T01:54:07;4.70;;;3.38;;
35675;SDS011;21790;42.668;23.298;2023-11-19T01:56:34;4.10;;;2.88;;
35675;SDS011;21790;42.668;23.298;2023-11-19T01:59:00;2.92;;;2.53;;
35675;SDS011;21790;42.668;23.298;2023-11-19T02:01:28;4.38;;;3.00;;
35675;SDS011;21790;42.668;23.298;2023-11-19T02:03:56;3.78;;;3.15;;
35675;SDS011;21790;42.668;23.298;2023-11-19T02:06:23;4.72;;;3.22;;
35675;SDS011;21790;42.668;23.298;2023-11-19T02:08:53;4.53;;;3.20;;
35675;SDS011;21790;42.668;23.298;2023-11-19T02:11:18;4.38;;;2.95;;
35675;SDS011;21790;42.668;23.298;2023-11-19T02:13:45;4.28;;;3.03;;
35675;SDS011;21790;42.668;23.298;2023-11-19T02:16:11;3.70;;;3.30;;
35675;SDS011;21790;42.668;23.298;2023-11-19T02:18:37;2.95;;;2.65;;
35675;SDS011;21790;42.668;23.298;2023-11-19T02:21:03;4.25;;;3.10;;
35675;SDS011;21790;42.668;23.298;2023-11-19T02:23:30;3.88;;;2.95;;
35675;SDS011;21790;42.668;23.298;2023-11-19T02:28:48;3.60;;;2.80;;
35675;SDS011;21790;42.668;23.298;2023-11-19T02:31:15;3.67;;;2.97;;
35675;SDS011;21790;42.668;23.298;2023-11-19T02:33:40;3.33;;;2.72;;
35675;SDS011;21790;42.668;23.298;2023-11-19T02:36:07;5.05;;;3.00;;
35675;SDS011;21790;42.668;23.298;2023-11-19T02:38:34;4.28;;;2.80;;
35675;SDS011;21790;42.668;23.298;2023-11-19T02:41:10;6.10;;;3.20;;
35675;SDS011;21790;42.668;23.298;2023-11-19T02:43:37;2.78;;;2.35;;
35675;SDS011;21790;42.668;23.298;2023-11-19T02:46:04;4.07;;;2.80;;
35675;SDS011;21790;42.668;23.298;2023-11-19T02:48:33;3.00;;;2.60;;
35675;SDS011;21790;42.668;23.298;2023-11-19T02:51:04;2.90;;;2.63;;
35675;SDS011;21790;42.668;23.298;2023-11-19T02:53:30;4.45;;;3.17;;
35675;SDS011;21790;42.668;23.298;2023-11-19T02:56:00;3.25;;;2.90;;
35675;SDS011;21790;42.668;23.298;2023-11-19T02:58:37;3.05;;;2.53;;
35675;SDS011;21790;42.668;23.298;2023-11-19T03:01:04;4.32;;;2.65;;
35675;SDS011;21790;42.668;23.298;2023-11-19T03:03:38;4.75;;;2.80;;
35675;SDS011;21790;42.668;23.298;2023-11-19T03:06:05;4.50;;;3.17;;
35675;SDS011;21790;42.668;23.298;2023-11-19T03:08:32;3.90;;;3.08;;
35675;SDS011;21790;42.668;23.298;2023-11-19T03:11:01;4.75;;;2.60;;
35675;SDS011;21790;42.668;23.298;2023-11-19T03:13:28;3.92;;;3.05;;
35675;SDS011;21790;42.668;23.298;2023-11-19T03:15:53;3.08;;;2.78;;
35675;SDS011;21790;42.668;23.298;2023-11-19T03:18:19;4.72;;;3.17;;
35675;SDS011;21790;42.668;23.298;2023-11-19T03:20:49;3.30;;;2.90;;
35675;SDS011;21790;42.668;23.298;2023-11-19T03:23:15;4.13;;;3.03;;
35675;SDS011;21790;42.668;23.298;2023-11-19T03:25:41;3.50;;;2.72;;
35675;SDS011;21790;42.668;23.298;2023-11-19T03:28:08;3.80;;;2.95;;
35675;SDS011;21790;42.668;23.298;2023-11-19T03:30:37;4.05;;;3.13;;
35675;SDS011;21790;42.668;23.298;2023-11-19T03:33:03;3.80;;;3.25;;
35675;SDS011;21790;42.668;23.298;2023-11-19T03:35:33;4.35;;;3.38;;
35675;SDS011;21790;42.668;23.298;2023-11-19T03:37:59;4.53;;;3.20;;
35675;SDS011;21790;42.668;23.298;2023-11-19T03:40:24;4.25;;;3.00;;
35675;SDS011;21790;42.668;23.298;2023-11-19T03:42:50;4.00;;;3.08;;
35675;SDS011;21790;42.668;23.298;2023-11-19T03:45:16;3.72;;;2.75;;
35675;SDS011;21790;42.668;23.298;2023-11-19T03:47:42;3.95;;;2.90;;
35675;SDS011;21790;42.668;23.298;2023-11-19T03:50:08;4.53;;;2.78;;
35675;SDS011;21790;42.668;23.298;2023-11-19T03:52:34;3.72;;;3.00;;
35675;SDS011;21790;42.668;23.298;2023-11-19T03:55:01;4.03;;;3.00;;
35675;SDS011;21790;42.668;23.298;2023-11-19T03:57:30;3.95;;;3.25;;
35675;SDS011;21790;42.668;23.298;2023-11-19T03:59:56;6.70;;;3.28;;
35675;SDS011;21790;42.668;23.298;2023-11-19T04:02:23;3.53;;;3.05;;
35675;SDS011;21790;42.668;23.298;2023-11-19T04:04:52;3.20;;;2.90;;
35675;SDS011;21790;42.668;23.298;2023-11-19T04:07:18;4.72;;;3.15;;
35675;SDS011;21790;42.668;23.298;2023-11-19T04:09:44;4.00;;;3.13;;
35675;SDS011;21790;42.668;23.298;2023-11-19T04:12:11;4.32;;;3.13;;
35675;SDS011;21790;42.668;23.298;2023-11-19T04:14:37;4.65;;;3.30;;
35675;SDS011;21790;42.668;23.298;2023-11-19T04:17:03;3.92;;;3.45;;
35675;SDS011;21790;42.668;23.298;2023-11-19T04:19:28;4.13;;;3.33;;
35675;SDS011;21790;42.668;23.298;2023-11-19T04:21:54;4.88;;;3.85;;
35675;SDS011;21790;42.668;23.298;2023-11-19T04:24:20;3.50;;;2.72;;
35675;SDS011;21790;42.668;23.298;2023-11-19T04:26:46;6.40;;;3.42;;
35675;SDS011;21790;42.668;23.298;2023-11-19T04:29:12;4.28;;;3.15;;
35675;SDS011;21790;42.668;23.298;2023-11-19T04:31:42;4.38;;;2.97;;
35675;SDS011;21790;42.668;23.298;2023-11-19T04:34:09;3.17;;;2.85;;
35675;SDS011;21790;42.668;23.298;2023-11-19T04:36:36;3.03;;;2.53;;
35675;SDS011;21790;42.668;23.298;2023-11-19T04:39:02;4.50;;;3.10;;
35675;SDS011;21790;42.668;23.298;2023-11-19T04:41:34;3.65;;;3.22;;
35675;SDS011;21790;42.668;23.298;2023-11-19T04:44:00;3.72;;;3.17;;
35675;SDS011;21790;42.668;23.298;2023-11-19T04:46:26;3.90;;;3.03;;
35675;SDS011;21790;42.668;23.298;2023-11-19T04:48:52;5.03;;;3.08;;
35675;SDS011;21790;42.668;23.298;2023-11-19T04:51:17;4.05;;;3.15;;
35675;SDS011;21790;42.668;23.298;2023-11-19T04:53:43;5.53;;;3.22;;
35675;SDS011;21790;42.668;23.298;2023-11-19T04:56:09;5.10;;;3.63;;
35675;SDS011;21790;42.668;23.298;2023-11-19T04:58:36;7.00;;;3.17;;
35675;SDS011;21790;42.668;23.298;2023-11-19T05:01:02;4.43;;;3.03;;
35675;SDS011;21790;42.668;23.298;2023-11-19T05:03:38;5.43;;;3.78;;
35675;SDS011;21790;42.668;23.298;2023-11-19T05:06:04;4.57;;;3.45;;
35675;SDS011;21790;42.668;23.298;2023-11-19T05:08:30;4.20;;;3.35;;
35675;SDS011;21790;42.668;23.298;2023-11-19T05:10:56;4.82;;;3.50;;
35675;SDS011;21790;42.668;23.298;2023-11-19T05:13:24;4.78;;;3.38;;
35675;SDS011;21790;42.668;23.298;2023-11-19T05:15:49;3.60;;;3.08;;
35675;SDS011;21790;42.668;23.298;2023-11-19T05:18:15;4.70;;;3.55;;
35675;SDS011;21790;42.668;23.298;2023-11-19T05:20:41;4.18;;;3.40;;
35675;SDS011;21790;42.668;23.298;2023-11-19T05:23:07;3.42;;;2.70;;
35675;SDS011;21790;42.668;23.298;2023-11-19T05:25:36;5.57;;;3.53;;
35675;SDS011;21790;42.668;23.298;2023-11-19T05:28:04;5.50;;;3.08;;
35675;SDS011;21790;42.668;23.298;2023-11-19T05:30:30;4.88;;;3.08;;
35675;SDS011;21790;42.668;23.298;2023-11-19T05:32:56;3.47;;;3.03;;
35675;SDS011;21790;42.668;23.298;2023-11-19T05:35:24;4.43;;;3.05;;
35675;SDS011;21790;42.668;23.298;2023-11-19T05:37:52;4.70;;;3.38;;
35675;SDS011;21790;42.668;23.298;2023-11-19T05:40:19;4.75;;;3.08;;
35675;SDS011;21790;42.668;23.298;2023-11-19T05:42:45;4.53;;;3.40;;
35675;SDS011;21790;42.668;23.298;2023-11-19T05:45:11;3.95;;;2.97;;
35675;SDS011;21790;42.668;23.298;2023-11-19T05:47:37;3.83;;;2.83;;
35675;SDS011;21790;42.668;23.298;2023-11-19T05:50:03;3.63;;;3.00;;
35675;SDS011;21790;42.668;23.298;2023-11-19T05:52:31;5.47;;;3.72;;
35675;SDS011;21790;42.668;23.298;2023-11-19T05:54:59;5.22;;;3.40;;
35675;SDS011;21790;42.668;23.298;2023-11-19T05:57:30;4.20;;;3.40;;
35675;SDS011;21790;42.668;23.298;2023-11-19T05:59:56;4.22;;;3.30;;
35675;SDS011;21790;42.668;23.298;2023-11-19T06:02:23;4.53;;;3.10;;
35675;SDS011;21790;42.668;23.298;2023-11-19T06:04:49;3.60;;;3.20;;
35675;SDS011;21790;42.668;23.298;2023-11-19T06:07:15;6.18;;;3.88;;
35675;SDS011;21790;42.668;23.298;2023-11-19T06:09:41;5.30;;;3.30;;
35675;SDS011;21790;42.668;23.298;2023-11-19T06:12:07;4.93;;;3.55;;
35675;SDS011;21790;42.668;23.298;2023-11-19T06:14:33;10.25;;;3.60;;
35675;SDS011;21790;42.668;23.298;2023-11-19T06:17:00;4.85;;;3.35;;
35675;SDS011;21790;42.668;23.298;2023-11-19T06:19:26;5.68;;;3.72;;
35675;SDS011;21790;42.668;23.298;2023-11-19T06:21:53;5.32;;;3.78;;
35675;SDS011;21790;42.668;23.298;2023-11-19T06:24:19;4.50;;;3.72;;
35675;SDS011;21790;42.668;23.298;2023-11-19T06:26:44;8.23;;;4.05;;
35675;SDS011;21790;42.668;23.298;2023-11-19T06:29:10;4.88;;;3.53;;
35675;SDS011;21790;42.668;23.298;2023-11-19T06:34:06;5.20;;;3.65;;
35675;SDS011;21790;42.668;23.298;2023-11-19T06:36:32;4.45;;;3.35;;
35675;SDS011;21790;42.668;23.298;2023-11-19T06:38:59;4.93;;;3.58;;
35675;SDS011;21790;42.668;23.298;2023-11-19T06:41:27;7.03;;;3.72;;
35675;SDS011;21790;42.668;23.298;2023-11-19T06:43:54;8.52;;;4.05;;
35675;SDS011;21790;42.668;23.298;2023-11-19T06:46:20;5.35;;;3.72;;
35675;SDS011;21790;42.668;23.298;2023-11-19T06:48:46;6.28;;;3.75;;
35675;SDS011;21790;42.668;23.298;2023-11-19T06:51:12;6.97;;;3.58;;
35675;SDS011;21790;42.668;23.298;2023-11-19T06:53:38;5.95;;;3.63;;
35675;SDS011;21790;42.668;23.298;2023-11-19T06:56:17;5.78;;;3.70;;
35675;SDS011;21790;42.668;23.298;2023-11-19T06:58:46;5.72;;;3.17;;
35675;SDS011;21790;42.668;23.298;2023-11-19T07:01:13;6.25;;;3.58;;
35675;SDS011;21790;42.668;23.298;2023-11-19T07:03:42;7.15;;;3.72;;
35675;SDS011;21790;42.668;23.298;2023-11-19T07:06:08;4.82;;;3.83;;
35675;SDS011;21790;42.668;23.298;2023-11-19T07:08:35;5.97;;;3.75;;
35675;SDS011;21790;42.668;23.298;2023-11-19T07:11:01;5.05;;;3.60;;
35675;SDS011;21790;42.668;23.298;2023-11-19T07:13:28;6.40;;;3.97;;
35675;SDS011;21790;42.668;23.298;2023-11-19T07:15:58;5.95;;;4.50;;
35675;SDS011;21790;42.668;23.298;2023-11-19T07:18:24;7.65;;;3.83;;
35675;SDS011;21790;42.668;23.298;2023-11-19T07:20:50;5.75;;;3.55;;
35675;SDS011;21790;42.668;23.298;2023-11-19T07:23:16;4.65;;;3.40;;
35675;SDS011;21790;42.668;23.298;2023-11-19T07:25:42;8.43;;;4.70;;
35675;SDS011;21790;42.668;23.298;2023-11-19T07:28:15;5.78;;;3.88;;
35675;SDS011;21790;42.668;23.298;2023-11-19T07:30:41;7.53;;;4.65;;
35675;SDS011;21790;42.668;23.298;2023-11-19T07:33:07;5.00;;;3.78;;
35675;SDS011;21790;42.668;23.298;2023-11-19T07:35:33;5.47;;;3.95;;
35675;SDS011;21790;42.668;23.298;2023-11-19T07:37:59;4.88;;;3.60;;
35675;SDS011;21790;42.668;23.298;2023-11-19T07:40:24;6.38;;;3.60;;
35675;SDS011;21790;42.668;23.298;2023-11-19T07:42:50;5.63;;;4.45;;
35675;SDS011;21790;42.668;23.298;2023-11-19T07:45:16;4.47;;;3.55;;
35675;SDS011;21790;42.668;23.298;2023-11-19T07:47:42;8.10;;;4.47;;
35675;SDS011;21790;42.668;23.298;2023-11-19T07:50:11;5.40;;;3.95;;
35675;SDS011;21790;42.668;23.298;2023-11-19T07:55:09;6.18;;;4.20;;
35675;SDS011;21790;42.668;23.298;2023-11-19T07:57:34;6.28;;;4.38;;
35675;SDS011;21790;42.668;23.298;2023-11-19T08:00:00;5.93;;;4.28;;
35675;SDS011;21790;42.668;23.298;2023-11-19T08:02:27;5.82;;;4.20;;
35675;SDS011;21790;42.668;23.298;2023-11-19T08:04:53;4.80;;;3.55;;
35675;SDS011;21790;42.668;23.298;2023-11-19T08:07:20;5.43;;;4.05;;
35675;SDS011;21790;42.668;23.298;2023-11-19T08:09:48;5.50;;;3.97;;
35675;SDS011;21790;42.668;23.298;2023-11-19T08:12:13;5.15;;;4.15;;
35675;SDS011;21790;42.668;23.298;2023-11-19T08:14:40;8.32;;;4.30;;
35675;SDS011;21790;42.668;23.298;2023-11-19T08:17:11;4.90;;;4.13;;
35675;SDS011;21790;42.668;23.298;2023-11-19T08:19:37;8.00;;;4.63;;
35675;SDS011;21790;42.668;23.298;2023-11-19T08:22:03;7.65;;;4.50;;
35675;SDS011;21790;42.668;23.298;2023-11-19T08:24:29;4.25;;;3.63;;
35675;SDS011;21790;42.668;23.298;2023-11-19T08:26:55;4.53;;;3.83;;
35675;SDS011;21790;42.668;23.298;2023-11-19T08:29:21;9.32;;;4.53;;
35675;SDS011;21790;42.668;23.298;2023-11-19T08:31:47;9.80;;;4.15;;
35675;SDS011;21790;42.668;23.298;2023-11-19T08:34:12;8.55;;;4.95;;
35675;SDS011;21790;42.668;23.298;2023-11-19T08:36:39;7.00;;;4.85;;
35675;SDS011;21790;42.668;23.298;2023-11-19T08:39:06;6.47;;;4.47;;
35675;SDS011;21790;42.668;23.298;2023-11-19T08:41:33;6.50;;;4.75;;
35675;SDS011;21790;42.668;23.298;2023-11-19T08:43:59;6.70;;;4.90;;
35675;SDS011;21790;42.668;23.298;2023-11-19T08:46:25;7.13;;;4.80;;
35675;SDS011;21790;42.668;23.298;2023-11-19T08:48:51;5.10;;;4.18;;
35675;SDS011;21790;42.668;23.298;2023-11-19T08:51:17;6.90;;;4.68;;
35675;SDS011;21790;42.668;23.298;2023-11-19T08:53:44;7.88;;;5.00;;
35675;SDS011;21790;42.668;23.298;2023-11-19T08:56:10;6.20;;;4.00;;
35675;SDS011;21790;42.668;23.298;2023-11-19T08:58:37;6.07;;;4.00;;
35675;SDS011;21790;42.668;23.298;2023-11-19T09:01:03;5.10;;;3.72;;
35675;SDS011;21790;42.668;23.298;2023-11-19T09:03:31;4.90;;;3.85;;
35675;SDS011;21790;42.668;23.298;2023-11-19T09:05:59;6.10;;;3.58;;
35675;SDS011;21790;42.668;23.298;2023-11-19T09:08:25;4.95;;;3.80;;
35675;SDS011;21790;42.668;23.298;2023-11-19T09:10:51;4.07;;;3.50;;
35675;SDS011;21790;42.668;23.298;2023-11-19T09:13:17;5.68;;;4.22;;
35675;SDS011;21790;42.668;23.298;2023-11-19T09:15:43;6.00;;;4.43;;
35675;SDS011;21790;42.668;23.298;2023-11-19T09:18:09;7.63;;;4.88;;
35675;SDS011;21790;42.668;23.298;2023-11-19T09:20:34;4.60;;;3.70;;
35675;SDS011;21790;42.668;23.298;2023-11-19T09:23:03;5.18;;;4.13;;
35675;SDS011;21790;42.668;23.298;2023-11-19T09:25:30;9.70;;;4.22;;
35675;SDS011;21790;42.668;23.298;2023-11-19T09:27:56;6.53;;;4.18;;
35675;SDS011;21790;42.668;23.298;2023-11-19T09:30:22;5.03;;;3.55;;
35675;SDS011;21790;42.668;23.298;2023-11-19T09:32:47;4.80;;;3.60;;
35675;SDS011;21790;42.668;23.298;2023-11-19T09:35:13;4.28;;;3.60;;
35675;SDS011;21790;42.668;23.298;2023-11-19T09:37:40;5.40;;;3.80;;
35675;SDS011;21790;42.668;23.298;2023-11-19T09:40:06;8.48;;;4.07;;
35675;SDS011;21790;42.668;23.298;2023-11-19T09:42:37;5.20;;;3.80;;
35675;SDS011;21790;42.668;23.298;2023-11-19T09:47:48;6.18;;;4.57;;
35675;SDS011;21790;42.668;23.298;2023-11-19T09:50:18;5.15;;;3.58;;
35675;SDS011;21790;42.668;23.298;2023-11-19T09:52:44;4.00;;;3.60;;
35675;SDS011;21790;42.668;23.298;2023-11-19T09:55:11;8.40;;;3.85;;
35675;SDS011;21790;42.668;23.298;2023-11-19T09:57:39;5.05;;;3.70;;
35675;SDS011;21790;42.668;23.298;2023-11-19T10:00:09;5.22;;;3.70;;
35675;SDS011;21790;42.668;23.298;2023-11-19T10:05:07;4.75;;;3.83;;
35675;SDS011;21790;42.668;23.298;2023-11-19T10:07:33;4.07;;;3.38;;
35675;SDS011;21790;42.668;23.298;2023-11-19T10:10:00;5.00;;;4.00;;
35675;SDS011;21790;42.668;23.298;2023-11-19T10:12:27;3.50;;;3.13;;
35675;SDS011;21790;42.668;23.298;2023-11-19T10:14:55;4.70;;;3.58;;
35675;SDS011;21790;42.668;23.298;2023-11-19T10:17:22;5.45;;;3.80;;
35675;SDS011;21790;42.668;23.298;2023-11-19T10:19:54;7.65;;;3.60;;
35675;SDS011;21790;42.668;23.298;2023-11-19T10:22:22;3.90;;;3.20;;
35675;SDS011;21790;42.668;23.298;2023-11-19T10:24:49;5.05;;;3.50;;
35675;SDS011;21790;42.668;23.298;2023-11-19T10:27:15;4.65;;;3.60;;
35675;SDS011;21790;42.668;23.298;2023-11-19T10:29:43;6.25;;;2.78;;
35675;SDS011;21790;42.668;23.298;2023-11-19T10:32:13;4.25;;;3.53;;
35675;SDS011;21790;42.668;23.298;2023-11-19T10:34:40;4.07;;;3.03;;
35675;SDS011;21790;42.668;23.298;2023-11-19T11:06:51;3.15;;;2.60;;
35675;SDS011;21790;42.668;23.298;2023-11-19T11:09:22;4.10;;;2.78;;
35675;SDS011;21790;42.668;23.298;2023-11-19T11:11:49;4.27;;;3.40;;
35675;SDS011;21790;42.668;23.298;2023-11-19T11:14:17;5.13;;;2.65;;
35675;SDS011;21790;42.668;23.298;2023-11-19T11:16:46;6.65;;;4.18;;
35675;SDS011;21790;42.668;23.298;2023-11-19T11:19:12;3.95;;;2.63;;
35675;SDS011;21790;42.668;23.298;2023-11-19T11:21:38;3.42;;;2.67;;
35675;SDS011;21790;42.668;23.298;2023-11-19T11:24:30;5.63;;;3.47;;
35675;SDS011;21790;42.668;23.298;2023-11-19T11:30:05;4.25;;;3.15;;
35675;SDS011;21790;42.668;23.298;2023-11-19T11:32:50;3.70;;;3.22;;
35675;SDS011;21790;42.668;23.298;2023-11-19T11:38:10;10.32;;;5.93;;
35675;SDS011;21790;42.668;23.298;2023-11-19T11:40:37;9.18;;;5.65;;
35675;SDS011;21790;42.668;23.298;2023-11-19T11:43:03;6.40;;;4.15;;
35675;SDS011;21790;42.668;23.298;2023-11-19T11:45:40;8.20;;;5.15;;
35675;SDS011;21790;42.668;23.298;2023-11-19T11:48:12;11.68;;;6.03;;
35675;SDS011;21790;42.668;23.298;2023-11-19T11:50:51;5.45;;;3.85;;
35675;SDS011;21790;42.668;23.298;2023-11-19T11:53:23;8.77;;;3.38;;
35675;SDS011;21790;42.668;23.298;2023-11-19T13:37:42;4.95;;;2.65;;
35675;SDS011;21790;42.668;23.298;2023-11-19T13:40:09;4.20;;;2.55;;
35675;SDS011;21790;42.668;23.298;2023-11-19T13:42:38;3.95;;;2.47;;
35675;SDS011;21790;42.668;23.298;2023-11-19T13:45:09;3.53;;;2.42;;
35675;SDS011;21790;42.668;23.298;2023-11-19T13:47:39;3.28;;;2.38;;
35675;SDS011;21790;42.668;23.298;2023-11-19T13:50:15;3.28;;;2.35;;
35675;SDS011;21790;42.668;23.298;2023-11-19T13:52:42;6.38;;;3.13;;
35675;SDS011;21790;42.668;23.298;2023-11-19T13:55:10;4.60;;;2.78;;
35675;SDS011;21790;42.668;23.298;2023-11-19T13:57:36;5.78;;;2.95;;
35675;SDS011;21790;42.668;23.298;2023-11-19T14:00:04;5.45;;;2.90;;
35675;SDS011;21790;42.668;23.298;2023-11-19T14:02:32;4.97;;;2.85;;
35675;SDS011;21790;42.668;23.298;2023-11-19T14:05:01;7.05;;;2.95;;
35675;SDS011;21790;42.668;23.298;2023-11-19T14:07:27;5.50;;;3.25;;
35675;SDS011;21790;42.668;23.298;2023-11-19T14:12:19;4.63;;;2.80;;
35675;SDS011;21790;42.668;23.298;2023-11-19T14:14:45;7.38;;;3.00;;
35675;SDS011;21790;42.668;23.298;2023-11-19T14:17:12;6.43;;;3.35;;
35675;SDS011;21790;42.668;23.298;2023-11-19T14:19:38;5.53;;;3.53;;
35675;SDS011;21790;42.668;23.298;2023-11-19T14:22:04;6.40;;;3.85;;
35675;SDS011;21790;42.668;23.298;2023-11-19T14:24:30;5.70;;;3.30;;
35675;SDS011;21790;42.668;23.298;2023-11-19T14:29:24;6.15;;;4.50;;
35675;SDS011;21790;42.668;23.298;2023-11-19T14:41:33;12.03;;;5.27;;
35675;SDS011;21790;42.668;23.298;2023-11-19T14:43:59;9.10;;;4.97;;
35675;SDS011;21790;42.668;23.298;2023-11-19T15:35:12;14.20;;;8.40;;
35675;SDS011;21790;42.668;23.298;2023-11-19T15:37:38;16.83;;;8.60;;
35675;SDS011;21790;42.668;23.298;2023-11-19T15:40:07;15.70;;;7.68;;
35675;SDS011;21790;42.668;23.298;2023-11-19T15:42:34;14.90;;;9.07;;
35675;SDS011;21790;42.668;23.298;2023-11-19T15:45:01;18.02;;;9.35;;
35675;SDS011;21790;42.668;23.298;2023-11-19T15:47:30;13.98;;;8.18;;
35675;SDS011;21790;42.668;23.298;2023-11-19T15:49:56;13.23;;;7.45;;
35675;SDS011;21790;42.668;23.298;2023-11-19T15:52:21;16.20;;;8.98;;
35675;SDS011;21790;42.668;23.298;2023-11-19T15:54:47;18.35;;;8.63;;
35675;SDS011;21790;42.668;23.298;2023-11-19T15:57:13;20.52;;;9.88;;
35675;SDS011;21790;42.668;23.298;2023-11-19T15:59:39;17.95;;;9.52;;
35675;SDS011;21790;42.668;23.298;2023-11-19T16:02:05;15.68;;;9.55;;
35675;SDS011;21790;42.668;23.298;2023-11-19T16:04:30;21.85;;;11.32;;
35675;SDS011;21790;42.668;23.298;2023-11-19T16:06:56;22.17;;;11.05;;
35675;SDS011;21790;42.668;23.298;2023-11-19T16:09:22;25.75;;;12.70;;
35675;SDS011;21790;42.668;23.298;2023-11-19T16:11:48;32.75;;;13.20;;
35675;SDS011;21790;42.668;23.298;2023-11-19T16:14:14;31.35;;;14.13;;
35675;SDS011;21790;42.668;23.298;2023-11-19T16:16:40;30.20;;;12.15;;
35675;SDS011;21790;42.668;23.298;2023-11-19T16:19:06;26.08;;;13.07;;
35675;SDS011;21790;42.668;23.298;2023-11-19T16:21:33;28.13;;;12.95;;
35675;SDS011;21790;42.668;23.298;2023-11-19T16:24:02;25.58;;;11.80;;
35675;SDS011;21790;42.668;23.298;2023-11-19T16:26:28;27.70;;;13.48;;
35675;SDS011;21790;42.668;23.298;2023-11-19T16:28:55;27.23;;;13.35;;
35675;SDS011;21790;42.668;23.298;2023-11-19T16:31:24;26.55;;;12.75;;
35675;SDS011;21790;42.668;23.298;2023-11-19T16:33:50;29.90;;;12.63;;
35675;SDS011;21790;42.668;23.298;2023-11-19T16:36:16;22.75;;;11.57;;
35675;SDS011;21790;42.668;23.298;2023-11-19T16:38:42;24.17;;;11.68;;
35675;SDS011;21790;42.668;23.298;2023-11-19T16:41:08;25.27;;;11.60;;
35675;SDS011;21790;42.668;23.298;2023-11-19T16:43:36;22.70;;;11.93;;
35675;SDS011;21790;42.668;23.298;2023-11-19T16:46:02;16.13;;;9.88;;
35675;SDS011;21790;42.668;23.298;2023-11-19T16:48:28;18.45;;;10.02;;
35675;SDS011;21790;42.668;23.298;2023-11-19T16:50:54;21.20;;;10.10;;
35675;SDS011;21790;42.668;23.298;2023-11-19T16:53:24;20.75;;;10.15;;
35675;SDS011;21790;42.668;23.298;2023-11-19T16:55:51;21.27;;;11.32;;
35675;SDS011;21790;42.668;23.298;2023-11-19T16:58:17;22.25;;;11.13;;
35675;SDS011;21790;42.668;23.298;2023-11-19T17:00:43;24.50;;;11.90;;
35675;SDS011;21790;42.668;23.298;2023-11-19T17:03:10;24.33;;;12.13;;
35675;SDS011;21790;42.668;23.298;2023-11-19T17:05:35;27.48;;;12.32;;
35675;SDS011;21790;42.668;23.298;2023-11-19T17:08:03;26.52;;;12.70;;
35675;SDS011;21790;42.668;23.298;2023-11-19T17:10:29;27.02;;;12.65;;
35675;SDS011;21790;42.668;23.298;2023-11-19T17:12:55;24.33;;;12.50;;
35675;SDS011;21790;42.668;23.298;2023-11-19T17:15:21;20.88;;;11.98;;
35675;SDS011;21790;42.668;23.298;2023-11-19T17:17:46;25.15;;;10.93;;
35675;SDS011;21790;42.668;23.298;2023-11-19T17:20:13;19.23;;;10.23;;
35675;SDS011;21790;42.668;23.298;2023-11-19T17:22:41;18.08;;;8.95;;
35675;SDS011;21790;42.668;23.298;2023-11-19T17:25:07;17.48;;;8.90;;
35675;SDS011;21790;42.668;23.298;2023-11-19T17:27:36;20.48;;;9.82;;
35675;SDS011;21790;42.668;23.298;2023-11-19T17:30:03;16.92;;;8.63;;
35675;SDS011;21790;42.668;23.298;2023-11-19T17:32:29;22.27;;;10.07;;
35675;SDS011;21790;42.668;23.298;2023-11-19T17:34:57;19.38;;;10.70;;
35675;SDS011;21790;42.668;23.298;2023-11-19T17:37:24;20.02;;;9.57;;
35675;SDS011;21790;42.668;23.298;2023-11-19T17:39:49;18.48;;;10.20;;
35675;SDS011;21790;42.668;23.298;2023-11-19T17:42:17;18.70;;;10.00;;
35675;SDS011;21790;42.668;23.298;2023-11-19T17:44:42;19.70;;;10.27;;
35675;SDS011;21790;42.668;23.298;2023-11-19T17:47:08;20.15;;;9.73;;
35675;SDS011;21790;42.668;23.298;2023-11-19T17:49:37;18.00;;;9.32;;
35675;SDS011;21790;42.668;23.298;2023-11-19T17:52:05;18.50;;;10.13;;
35675;SDS011;21790;42.668;23.298;2023-11-19T17:54:31;18.65;;;8.65;;
35675;SDS011;21790;42.668;23.298;2023-11-19T17:56:57;17.33;;;8.00;;
35675;SDS011;21790;42.668;23.298;2023-11-19T17:59:24;14.40;;;7.82;;
35675;SDS011;21790;42.668;23.298;2023-11-19T18:01:52;11.45;;;6.90;;
35675;SDS011;21790;42.668;23.298;2023-11-19T18:04:23;15.15;;;7.32;;